createdAt,value
2022-09-24T00:00:49.583Z,8.10
2022-09-24T00:01:50.604Z,8.10
2022-09-24T00:02:51.529Z,8.10
2022-09-24T00:03:52.370Z,8.11
2022-09-24T00:04:53.262Z,8.08
2022-09-24T00:05:54.146Z,8.10
2022-09-24T00:06:55.017Z,8.08
2022-09-24T00:07:55.898Z,8.10
2022-09-24T00:08:56.770Z,8.08
2022-09-24T00:09:57.661Z,8.07
2022-09-24T00:10:58.552Z,8.07
2022-09-24T00:11:59.415Z,8.08
2022-09-24T00:13:00.293Z,8.08
2022-09-24T00:14:01.212Z,8.08
2022-09-24T00:15:02.073Z,8.10
2022-09-24T00:16:03.061Z,8.10
2022-09-24T00:17:03.939Z,8.11
2022-09-24T00:18:04.818Z,8.16
2022-09-24T00:19:05.699Z,8.12
2022-09-24T00:20:06.582Z,8.15
2022-09-24T00:21:07.465Z,8.15
2022-09-24T00:22:08.346Z,8.16
2022-09-24T00:23:09.237Z,8.18
2022-09-24T00:24:10.306Z,8.19
2022-09-24T00:25:10.713Z,8.20
2022-09-24T00:26:11.638Z,8.19
2022-09-24T00:27:12.489Z,8.20
2022-09-24T00:28:13.386Z,8.23
2022-09-24T00:29:14.289Z,8.22
2022-09-24T00:30:15.172Z,8.25
2022-09-24T00:31:16.101Z,8.25
2022-09-24T00:32:16.958Z,8.25
2022-09-24T00:33:17.850Z,8.23
2022-09-24T00:34:18.739Z,8.22
2022-09-24T00:35:19.614Z,8.22
2022-09-24T00:36:20.495Z,8.20
2022-09-24T00:37:21.379Z,8.19
2022-09-24T00:38:22.266Z,8.18
2022-09-24T00:39:23.142Z,8.16
2022-09-24T00:40:24.087Z,8.16
2022-09-24T00:41:24.950Z,8.15
2022-09-24T00:42:25.808Z,8.15
2022-09-24T00:43:26.693Z,8.12
2022-09-24T00:44:27.582Z,8.15
2022-09-24T00:45:28.455Z,8.12
2022-09-24T00:46:29.419Z,8.15
2022-09-24T00:47:30.241Z,8.16
2022-09-24T00:48:31.127Z,8.16
2022-09-24T00:49:32.003Z,8.18
2022-09-24T00:50:32.885Z,8.19
2022-09-24T00:51:33.763Z,8.19
2022-09-24T00:52:34.651Z,8.22
2022-09-24T00:53:35.514Z,8.20
2022-09-24T00:54:36.408Z,8.22
2022-09-24T00:55:37.275Z,8.20
2022-09-24T00:56:38.176Z,8.18
2022-09-24T00:57:39.041Z,8.18
2022-09-24T00:58:39.922Z,8.16
2022-09-24T00:59:40.814Z,8.16
2022-09-24T01:00:41.769Z,8.12
2022-09-24T01:01:42.676Z,8.12
2022-09-24T01:02:43.572Z,8.10
2022-09-24T01:03:44.445Z,8.07
2022-09-24T01:04:45.337Z,8.01
2022-09-24T01:05:46.220Z,8.00
2022-09-24T01:06:47.102Z,7.98
2022-09-24T01:07:47.977Z,7.97
2022-09-24T01:08:48.859Z,7.97
2022-09-24T01:09:49.749Z,7.95
2022-09-24T01:10:50.630Z,7.93
2022-09-24T01:11:51.524Z,7.95
2022-09-24T01:12:52.402Z,7.95
2022-09-24T01:13:53.303Z,7.95
2022-09-24T01:14:54.212Z,7.97
2022-09-24T01:15:55.141Z,7.97
2022-09-24T01:16:56.009Z,7.97
2022-09-24T01:17:56.913Z,7.98
2022-09-24T01:18:57.783Z,7.97
2022-09-24T01:19:58.665Z,7.97
2022-09-24T01:20:59.547Z,7.97
2022-09-24T01:22:00.420Z,7.98
2022-09-24T01:23:01.303Z,7.97
2022-09-24T01:24:02.184Z,7.98
2022-09-24T01:25:03.068Z,8.00
2022-09-24T01:26:03.941Z,8.00
2022-09-24T01:27:04.838Z,8.00
2022-09-24T01:28:05.694Z,8.01
2022-09-24T01:29:06.583Z,8.00
2022-09-24T01:30:07.459Z,8.02
2022-09-24T01:31:08.351Z,8.01
2022-09-24T01:32:09.212Z,8.02
2022-09-24T01:33:10.093Z,8.01
2022-09-24T01:34:11.008Z,8.04
2022-09-24T01:35:11.857Z,8.05
2022-09-24T01:36:12.731Z,8.07
2022-09-24T01:37:13.613Z,8.07
2022-09-24T01:38:14.486Z,8.08
2022-09-24T01:39:15.377Z,8.05
2022-09-24T01:40:16.382Z,8.08
2022-09-24T01:41:17.242Z,8.08
2022-09-24T01:42:18.148Z,8.10
2022-09-24T01:43:19.008Z,8.07
2022-09-24T01:44:19.894Z,8.07
2022-09-24T01:45:20.776Z,8.07
2022-09-24T01:46:21.762Z,8.05
2022-09-24T01:47:22.589Z,8.07
2022-09-24T01:48:23.470Z,8.05
2022-09-24T01:49:24.365Z,8.05
2022-09-24T01:50:25.238Z,8.07
2022-09-24T01:51:26.116Z,8.05
2022-09-24T01:52:27.002Z,8.05
2022-09-24T01:53:27.881Z,8.07
2022-09-24T01:54:28.764Z,8.05
2022-09-24T01:55:29.646Z,8.04
2022-09-24T01:56:30.542Z,8.04
2022-09-24T01:57:31.521Z,8.04
2022-09-24T01:58:32.347Z,8.01
2022-09-24T01:59:33.250Z,8.01
2022-09-24T02:00:34.207Z,8.00
2022-09-24T02:01:35.129Z,8.01
2022-09-24T02:02:35.996Z,8.01
2022-09-24T02:03:36.885Z,7.98
2022-09-24T02:04:37.774Z,7.98
2022-09-24T02:05:38.663Z,7.97
2022-09-24T02:06:39.570Z,7.97
2022-09-24T02:07:40.467Z,7.95
2022-09-24T02:08:41.372Z,7.97
2022-09-24T02:09:42.287Z,7.97
2022-09-24T02:10:43.178Z,7.97
2022-09-24T02:11:44.077Z,7.95
2022-09-24T02:12:44.987Z,7.93
2022-09-24T02:13:45.832Z,7.95
2022-09-24T02:14:46.714Z,7.93
2022-09-24T02:15:47.650Z,7.95
2022-09-24T02:16:48.517Z,7.93
2022-09-24T02:17:49.398Z,7.95
2022-09-24T02:18:50.292Z,7.93
2022-09-24T02:19:51.173Z,7.93
2022-09-24T02:20:52.055Z,7.93
2022-09-24T02:21:52.937Z,7.92
2022-09-24T02:22:53.810Z,7.93
2022-09-24T02:23:54.700Z,7.93
2022-09-24T02:24:55.576Z,7.95
2022-09-24T02:25:56.472Z,7.93
2022-09-24T02:26:57.330Z,7.95
2022-09-24T02:27:58.229Z,7.92
2022-09-24T02:28:59.090Z,7.93
2022-09-24T02:29:59.973Z,7.89
2022-09-24T02:31:00.868Z,7.90
2022-09-24T02:32:01.727Z,7.90
2022-09-24T02:33:02.615Z,7.85
2022-09-24T02:34:03.493Z,7.85
2022-09-24T02:35:04.365Z,7.85
2022-09-24T02:36:05.247Z,7.83
2022-09-24T02:37:06.130Z,7.80
2022-09-24T02:38:07.011Z,7.80
2022-09-24T02:39:07.893Z,7.79
2022-09-24T02:40:08.870Z,7.77
2022-09-24T02:41:09.718Z,7.77
2022-09-24T02:42:10.598Z,7.77
2022-09-24T02:43:11.501Z,7.79
2022-09-24T02:44:12.374Z,7.77
2022-09-24T02:45:13.255Z,7.77
2022-09-24T02:46:14.197Z,7.79
2022-09-24T02:47:15.041Z,7.80
2022-09-24T02:48:15.927Z,7.79
2022-09-24T02:49:16.816Z,7.79
2022-09-24T02:50:17.697Z,7.80
2022-09-24T02:51:18.579Z,7.79
2022-09-24T02:52:19.479Z,7.80
2022-09-24T02:53:20.385Z,7.82
2022-09-24T02:54:21.298Z,7.83
2022-09-24T02:55:22.190Z,7.82
2022-09-24T02:56:23.088Z,7.85
2022-09-24T02:57:23.962Z,7.85
2022-09-24T02:58:24.875Z,7.82
2022-09-24T02:59:25.737Z,7.83
2022-09-24T03:00:26.607Z,7.80
2022-09-24T03:01:27.572Z,7.82
2022-09-24T03:02:28.526Z,7.80
2022-09-24T03:03:29.370Z,7.80
2022-09-24T03:04:30.284Z,7.77
2022-09-24T03:05:31.175Z,7.79
2022-09-24T03:06:32.048Z,7.77
2022-09-24T03:07:32.929Z,7.77
2022-09-24T03:08:33.802Z,7.80
2022-09-24T03:09:34.692Z,7.80
2022-09-24T03:10:35.575Z,7.79
2022-09-24T03:11:36.457Z,7.79
2022-09-24T03:12:37.331Z,7.77
2022-09-24T03:13:38.235Z,7.77
2022-09-24T03:14:39.094Z,7.77
2022-09-24T03:15:40.043Z,7.77
2022-09-24T03:16:40.898Z,7.79
2022-09-24T03:17:41.779Z,7.75
2022-09-24T03:18:42.651Z,7.77
2022-09-24T03:19:43.542Z,7.77
2022-09-24T03:20:44.428Z,7.75
2022-09-24T03:21:45.311Z,7.75
2022-09-24T03:22:46.191Z,7.77
2022-09-24T03:23:47.072Z,7.77
2022-09-24T03:24:47.964Z,7.77
2022-09-24T03:25:48.846Z,7.79
2022-09-24T03:26:49.719Z,7.80
2022-09-24T03:27:50.608Z,7.82
2022-09-24T03:28:51.519Z,7.85
2022-09-24T03:29:52.363Z,7.87
2022-09-24T03:30:53.318Z,7.92
2022-09-24T03:31:54.202Z,7.95
2022-09-24T03:32:55.051Z,7.98
2022-09-24T03:33:55.940Z,8.00
2022-09-24T03:34:56.824Z,8.02
2022-09-24T03:35:57.705Z,8.05
2022-09-24T03:36:58.580Z,8.04
2022-09-24T03:37:59.459Z,8.05
2022-09-24T03:39:00.342Z,8.01
2022-09-24T03:40:01.228Z,7.98
2022-09-24T03:41:02.098Z,7.98
2022-09-24T03:42:03.000Z,7.97
2022-09-24T03:43:03.873Z,7.93
2022-09-24T03:44:04.950Z,7.92
2022-09-24T03:45:05.286Z,7.93
2022-09-24T03:46:06.205Z,7.92
2022-09-24T03:47:07.042Z,7.90
2022-09-24T03:48:07.924Z,7.89
2022-09-24T03:49:08.824Z,7.89
2022-09-24T03:50:09.704Z,7.85
2022-09-24T03:51:10.588Z,7.85
2022-09-24T03:52:11.463Z,7.85
2022-09-24T03:53:12.339Z,7.82
2022-09-24T03:54:13.228Z,7.79
2022-09-24T03:55:14.101Z,7.77
2022-09-24T03:56:14.983Z,7.77
2022-09-24T03:57:15.857Z,7.74
2022-09-24T03:58:16.738Z,7.72
2022-09-24T03:59:17.641Z,7.71
2022-09-24T04:00:18.510Z,7.68
2022-09-24T04:01:19.496Z,7.67
2022-09-24T04:02:20.374Z,7.64
2022-09-24T04:03:21.325Z,7.67
2022-09-24T04:04:22.193Z,7.64
2022-09-24T04:05:23.077Z,7.64
2022-09-24T04:06:26.047Z,7.64
2022-09-24T04:07:24.474Z,7.63
2022-09-24T04:08:25.356Z,7.64
2022-09-24T04:09:26.238Z,7.63
2022-09-24T04:10:27.119Z,7.64
2022-09-24T04:11:28.003Z,7.61
2022-09-24T04:12:28.884Z,7.63
2022-09-24T04:13:29.767Z,7.63
2022-09-24T04:14:30.676Z,7.63
2022-09-24T04:15:31.542Z,7.63
2022-09-24T04:16:32.465Z,7.63
2022-09-24T04:17:33.308Z,7.61
2022-09-24T04:18:38.911Z,7.63
2022-09-24T04:19:35.966Z,7.63
2022-09-24T04:20:35.854Z,7.64
2022-09-24T04:21:36.720Z,7.61
2022-09-24T04:22:37.602Z,7.60
2022-09-24T04:23:38.475Z,7.60
2022-09-24T04:24:39.364Z,7.60
2022-09-24T04:25:40.263Z,7.61
2022-09-24T04:26:41.117Z,7.58
2022-09-24T04:27:41.991Z,7.60
2022-09-24T04:28:42.874Z,7.60
2022-09-24T04:29:43.786Z,7.60
2022-09-24T04:30:44.647Z,7.58
2022-09-24T04:31:45.596Z,7.60
2022-09-24T04:32:46.430Z,7.61
2022-09-24T04:33:47.323Z,7.60
2022-09-24T04:34:48.204Z,7.60
2022-09-24T04:35:49.089Z,7.61
2022-09-24T04:36:49.976Z,7.58
2022-09-24T04:37:50.842Z,7.61
2022-09-24T04:38:51.733Z,7.61
2022-09-24T04:39:52.607Z,7.61
2022-09-24T04:40:53.578Z,7.61
2022-09-24T04:41:54.471Z,7.60
2022-09-24T04:42:55.353Z,7.61
2022-09-24T04:43:56.245Z,7.63
2022-09-24T04:44:57.152Z,7.60
2022-09-24T04:45:58.000Z,7.61
2022-09-24T04:46:58.957Z,7.63
2022-09-24T04:47:59.811Z,7.61
2022-09-24T04:49:00.661Z,7.63
2022-09-24T04:50:01.533Z,7.61
2022-09-24T04:51:02.415Z,7.61
2022-09-24T04:52:03.296Z,7.61
2022-09-24T04:53:04.180Z,7.61
2022-09-24T04:54:05.061Z,7.60
2022-09-24T04:55:05.904Z,7.61
2022-09-24T04:56:06.720Z,7.61
2022-09-24T04:57:07.548Z,7.61
2022-09-24T04:58:08.432Z,7.58
2022-09-24T04:59:09.408Z,7.55
2022-09-24T05:00:10.212Z,7.53
2022-09-24T05:01:11.015Z,7.49
2022-09-24T05:02:12.005Z,7.45
2022-09-24T05:03:12.470Z,7.42
2022-09-24T05:04:13.279Z,7.42
2022-09-24T05:05:14.109Z,7.40
2022-09-24T05:06:14.935Z,7.40
2022-09-24T05:07:15.763Z,7.37
2022-09-24T05:08:16.638Z,7.39
2022-09-24T05:09:18.012Z,7.40
2022-09-24T05:10:18.414Z,7.40
2022-09-24T05:11:19.242Z,7.40
2022-09-24T05:12:20.071Z,7.39
2022-09-24T05:13:20.899Z,7.35
2022-09-24T05:14:21.738Z,7.35
2022-09-24T05:15:22.801Z,7.31
2022-09-24T05:16:23.618Z,7.30
2022-09-24T05:17:24.410Z,7.25
2022-09-24T05:18:25.243Z,7.24
2022-09-24T05:19:26.085Z,7.23
2022-09-24T05:20:26.913Z,7.20
2022-09-24T05:21:27.737Z,7.20
2022-09-24T05:22:28.556Z,7.20
2022-09-24T05:23:29.390Z,7.16
2022-09-24T05:24:30.219Z,7.16
2022-09-24T05:25:31.051Z,7.20
2022-09-24T05:26:31.865Z,7.20
2022-09-24T05:27:32.693Z,7.21
2022-09-24T05:28:33.530Z,7.21
2022-09-24T05:29:34.357Z,7.21
2022-09-24T05:30:35.210Z,7.23
2022-09-24T05:31:36.081Z,7.24
2022-09-24T05:32:36.873Z,7.25
2022-09-24T05:33:37.713Z,7.27
2022-09-24T05:34:38.536Z,7.27
2022-09-24T05:35:39.364Z,7.28
2022-09-24T05:36:40.188Z,7.31
2022-09-24T05:37:41.016Z,7.32
2022-09-24T05:38:42.080Z,7.34
2022-09-24T05:39:42.354Z,7.34
2022-09-24T05:40:43.289Z,7.39
2022-09-24T05:41:44.088Z,7.40
2022-09-24T05:42:44.911Z,7.42
2022-09-24T05:43:45.745Z,7.43
2022-09-24T05:44:51.947Z,7.43
2022-09-24T05:45:48.300Z,7.46
2022-09-24T05:46:48.228Z,7.48
2022-09-24T05:47:49.046Z,7.49
2022-09-24T05:48:49.873Z,7.48
2022-09-24T05:49:50.701Z,7.48
2022-09-24T05:50:51.521Z,7.48
2022-09-24T05:51:52.348Z,7.48
2022-09-24T05:52:53.168Z,7.48
2022-09-24T05:53:54.026Z,7.46
2022-09-24T05:54:54.855Z,7.46
2022-09-24T05:55:55.686Z,7.49
2022-09-24T05:56:56.512Z,7.49
2022-09-24T05:57:57.340Z,7.50
2022-09-24T05:58:58.167Z,7.52
2022-09-24T05:59:58.996Z,7.55
2022-09-24T06:00:59.841Z,7.55
2022-09-24T06:02:00.726Z,7.58
2022-09-24T06:03:01.623Z,7.58
2022-09-24T06:04:06.269Z,7.61
2022-09-24T06:05:04.144Z,7.63
2022-09-24T06:06:03.972Z,7.63
2022-09-24T06:07:04.794Z,7.64
2022-09-24T06:08:05.621Z,7.64
2022-09-24T06:09:06.457Z,7.69
2022-09-24T06:10:07.286Z,7.72
2022-09-24T06:11:08.119Z,7.71
2022-09-24T06:12:08.942Z,7.72
2022-09-24T06:13:09.776Z,7.75
2022-09-24T06:14:10.614Z,7.79
2022-09-24T06:15:11.433Z,7.77
2022-09-24T06:16:12.429Z,7.80
2022-09-24T06:17:13.209Z,7.80
2022-09-24T06:18:14.037Z,7.83
2022-09-24T06:19:14.865Z,7.85
2022-09-24T06:20:15.692Z,7.86
2022-09-24T06:21:16.534Z,7.87
2022-09-24T06:22:17.345Z,7.87
2022-09-24T06:23:18.196Z,7.90
2022-09-24T06:24:19.028Z,7.89
2022-09-24T06:25:19.840Z,7.92
2022-09-24T06:26:20.676Z,7.93
2022-09-24T06:27:21.500Z,7.95
2022-09-24T06:28:22.328Z,7.97
2022-09-24T06:29:23.169Z,7.97
2022-09-24T06:30:23.997Z,7.97
2022-09-24T06:31:24.926Z,8.00
2022-09-24T06:32:25.709Z,8.00
2022-09-24T06:33:26.539Z,8.01
2022-09-24T06:34:27.379Z,8.00
2022-09-24T06:35:28.204Z,8.00
2022-09-24T06:36:29.032Z,8.01
2022-09-24T06:37:29.863Z,8.04
2022-09-24T06:38:30.706Z,8.04
2022-09-24T06:39:31.532Z,8.04
2022-09-24T06:40:36.580Z,8.08
2022-09-24T06:41:34.075Z,8.08
2022-09-24T06:42:33.904Z,8.08
2022-09-24T06:43:34.730Z,8.15
2022-09-24T06:44:35.560Z,8.12
2022-09-24T06:45:36.396Z,8.16
2022-09-24T06:46:37.395Z,8.19
2022-09-24T06:47:37.711Z,8.20
2022-09-24T06:48:38.543Z,8.20
2022-09-24T06:49:39.367Z,8.23
2022-09-24T06:50:40.192Z,8.26
2022-09-24T06:51:41.021Z,8.30
2022-09-24T06:52:41.900Z,8.30
2022-09-24T06:53:42.694Z,8.33
2022-09-24T06:54:43.565Z,8.37
2022-09-24T06:55:45.156Z,8.40
2022-09-24T06:56:45.069Z,8.43
2022-09-24T06:57:45.934Z,8.45
2022-09-24T06:58:46.741Z,8.52
2022-09-24T06:59:47.559Z,8.53
2022-09-24T07:00:48.452Z,8.58
2022-09-24T07:01:49.333Z,8.61
2022-09-24T07:02:50.111Z,8.62
2022-09-24T07:03:50.950Z,8.66
2022-09-24T07:04:51.780Z,8.68
2022-09-24T07:05:52.600Z,8.71
2022-09-24T07:06:53.431Z,8.71
2022-09-24T07:07:54.293Z,8.76
2022-09-24T07:08:55.099Z,8.77
2022-09-24T07:09:55.917Z,8.79
2022-09-24T07:10:56.744Z,8.81
2022-09-24T07:11:57.575Z,8.83
2022-09-24T07:12:58.402Z,8.83
2022-09-24T07:13:59.398Z,8.87
2022-09-24T07:15:00.146Z,8.87
2022-09-24T07:16:01.091Z,8.92
2022-09-24T07:17:01.939Z,8.92
2022-09-24T07:18:02.720Z,8.95
2022-09-24T07:19:03.554Z,8.94
2022-09-24T07:20:04.379Z,8.96
2022-09-24T07:21:05.203Z,8.98
2022-09-24T07:22:06.082Z,8.99
2022-09-24T07:23:06.866Z,9.02
2022-09-24T07:24:07.706Z,9.04
2022-09-24T07:25:08.535Z,9.04
2022-09-24T07:26:09.363Z,9.05
2022-09-24T07:27:10.182Z,9.05
2022-09-24T07:28:11.192Z,9.05
2022-09-24T07:29:12.031Z,9.08
2022-09-24T07:30:12.837Z,9.05
2022-09-24T07:31:13.680Z,9.10
2022-09-24T07:32:14.588Z,9.11
2022-09-24T07:33:15.336Z,9.13
2022-09-24T07:34:16.182Z,9.14
2022-09-24T07:35:17.003Z,9.14
2022-09-24T07:36:17.831Z,9.15
2022-09-24T07:37:18.651Z,9.18
2022-09-24T07:38:19.483Z,9.20
2022-09-24T07:39:20.330Z,9.23
2022-09-24T07:40:21.231Z,9.24
2022-09-24T07:41:22.179Z,9.26
2022-09-24T07:42:22.940Z,9.28
2022-09-24T07:43:23.758Z,9.31
2022-09-24T07:44:24.602Z,9.32
2022-09-24T07:45:25.425Z,9.33
2022-09-24T07:46:26.298Z,9.35
2022-09-24T07:47:27.116Z,9.38
2022-09-24T07:48:27.924Z,9.42
2022-09-24T07:49:28.755Z,9.46
2022-09-24T07:50:29.603Z,9.47
2022-09-24T07:51:30.431Z,9.50
2022-09-24T07:52:31.291Z,9.56
2022-09-24T07:53:32.122Z,9.58
2022-09-24T07:54:32.942Z,9.61
2022-09-24T07:55:33.762Z,9.68
2022-09-24T07:56:34.592Z,9.72
2022-09-24T07:57:35.422Z,9.78
2022-09-24T07:58:36.258Z,9.83
2022-09-24T07:59:37.087Z,9.87
2022-09-24T08:00:37.931Z,9.94
2022-09-24T08:01:38.798Z,9.99
2022-09-24T08:02:39.632Z,10.01
2022-09-24T08:03:40.471Z,10.08
2022-09-24T08:04:41.280Z,10.14
2022-09-24T08:05:42.108Z,10.20
2022-09-24T08:06:47.378Z,10.22
2022-09-24T08:07:43.480Z,10.27
2022-09-24T08:08:44.323Z,10.30
2022-09-24T08:09:45.150Z,10.34
2022-09-24T08:10:45.977Z,10.38
2022-09-24T08:11:46.811Z,10.42
2022-09-24T08:12:47.642Z,10.48
2022-09-24T08:13:48.490Z,10.51
2022-09-24T08:14:49.307Z,10.56
2022-09-24T08:15:50.219Z,10.59
2022-09-24T08:16:51.036Z,10.59
2022-09-24T08:17:51.883Z,10.63
2022-09-24T08:18:52.701Z,10.67
2022-09-24T08:19:53.539Z,10.67
2022-09-24T08:20:54.370Z,10.68
2022-09-24T08:21:55.200Z,10.71
2022-09-24T08:22:56.024Z,10.73
2022-09-24T08:23:56.861Z,10.76
2022-09-24T08:24:57.693Z,10.81
2022-09-24T08:25:58.526Z,10.81
2022-09-24T08:26:59.347Z,10.82
2022-09-24T08:28:00.191Z,10.84
2022-09-24T08:29:01.028Z,10.84
2022-09-24T08:30:01.870Z,10.88
2022-09-24T08:31:02.746Z,10.91
2022-09-24T08:32:03.526Z,10.91
2022-09-24T08:33:04.372Z,10.91
2022-09-24T08:34:05.269Z,10.92
2022-09-24T08:35:06.072Z,10.94
2022-09-24T08:36:06.901Z,10.94
2022-09-24T08:37:07.740Z,10.97
2022-09-24T08:38:08.560Z,10.97
2022-09-24T08:39:09.405Z,11.02
2022-09-24T08:40:10.224Z,11.04
2022-09-24T08:41:11.058Z,11.04
2022-09-24T08:42:11.881Z,11.06
2022-09-24T08:43:12.707Z,11.06
2022-09-24T08:44:13.548Z,11.10
2022-09-24T08:45:14.374Z,11.10
2022-09-24T08:46:15.234Z,11.11
2022-09-24T08:47:16.040Z,11.11
2022-09-24T08:48:16.886Z,11.11
2022-09-24T08:49:17.725Z,11.14
2022-09-24T08:50:18.555Z,11.15
2022-09-24T08:51:19.374Z,11.18
2022-09-24T08:52:20.194Z,11.19
2022-09-24T08:53:21.023Z,11.22
2022-09-24T08:54:21.858Z,11.22
2022-09-24T08:55:22.695Z,11.24
2022-09-24T08:56:23.522Z,11.27
2022-09-24T08:57:24.349Z,11.28
2022-09-24T08:58:25.169Z,11.29
2022-09-24T08:59:26.042Z,11.33
2022-09-24T09:00:26.838Z,11.35
2022-09-24T09:01:27.773Z,11.36
2022-09-24T09:02:28.718Z,11.39
2022-09-24T09:03:29.546Z,11.42
2022-09-24T09:04:30.362Z,11.44
2022-09-24T09:05:31.200Z,11.44
2022-09-24T09:06:32.022Z,11.49
2022-09-24T09:07:32.852Z,11.51
2022-09-24T09:08:55.048Z,11.52
2022-09-24T09:09:35.402Z,11.55
2022-09-24T09:10:35.226Z,11.57
2022-09-24T09:11:36.057Z,11.60
2022-09-24T09:12:36.883Z,11.62
2022-09-24T09:13:37.719Z,11.64
2022-09-24T09:14:41.964Z,11.65
2022-09-24T09:15:39.311Z,11.70
2022-09-24T09:16:40.115Z,11.72
2022-09-24T09:17:40.931Z,11.73
2022-09-24T09:18:41.767Z,11.78
2022-09-24T09:19:42.591Z,11.82
2022-09-24T09:20:43.419Z,11.83
2022-09-24T09:21:44.248Z,11.83
2022-09-24T09:22:45.084Z,11.90
2022-09-24T09:23:45.903Z,11.91
2022-09-24T09:24:46.757Z,11.96
2022-09-24T09:25:47.572Z,11.98
2022-09-24T09:26:48.397Z,12.02
2022-09-24T09:27:49.238Z,12.05
2022-09-24T09:28:50.073Z,12.10
2022-09-24T09:29:50.911Z,12.13
2022-09-24T09:30:51.820Z,12.17
2022-09-24T09:31:56.345Z,12.23
2022-09-24T09:32:53.484Z,12.28
2022-09-24T09:33:54.446Z,12.34
2022-09-24T09:34:55.201Z,12.37
2022-09-24T09:35:56.036Z,12.39
2022-09-24T09:36:56.858Z,12.46
2022-09-24T09:37:57.687Z,12.52
2022-09-24T09:38:58.529Z,12.56
2022-09-24T09:39:59.378Z,12.59
2022-09-24T09:41:00.272Z,12.62
2022-09-24T09:42:01.077Z,12.67
2022-09-24T09:43:01.918Z,12.72
2022-09-24T09:44:02.834Z,12.77
2022-09-24T09:45:03.658Z,12.78
2022-09-24T09:46:04.531Z,12.82
2022-09-24T09:47:05.309Z,12.85
2022-09-24T09:48:06.144Z,12.87
2022-09-24T09:49:07.081Z,12.90
2022-09-24T09:50:07.840Z,12.95
2022-09-24T09:51:08.667Z,13.00
2022-09-24T09:52:09.496Z,13.01
2022-09-24T09:53:10.327Z,13.04
2022-09-24T09:54:11.234Z,13.07
2022-09-24T09:55:12.017Z,13.08
2022-09-24T09:56:12.851Z,13.11
2022-09-24T09:57:13.681Z,13.12
2022-09-24T09:58:14.507Z,13.15
2022-09-24T09:59:15.340Z,13.17
2022-09-24T10:00:16.176Z,13.19
2022-09-24T10:01:16.999Z,13.20
2022-09-24T10:02:17.923Z,13.20
2022-09-24T10:03:18.784Z,13.22
2022-09-24T10:04:19.743Z,13.20
2022-09-24T10:05:26.301Z,13.25
2022-09-24T10:06:22.217Z,13.25
2022-09-24T10:07:22.050Z,13.30
2022-09-24T10:08:22.880Z,13.29
2022-09-24T10:09:23.717Z,13.32
2022-09-24T10:10:24.543Z,13.32
2022-09-24T10:11:25.373Z,13.32
2022-09-24T10:12:26.200Z,13.32
2022-09-24T10:13:27.064Z,13.32
2022-09-24T10:14:27.897Z,13.32
2022-09-24T10:15:28.722Z,13.33
2022-09-24T10:16:29.657Z,13.36
2022-09-24T10:17:30.479Z,13.38
2022-09-24T10:18:31.317Z,13.39
2022-09-24T10:19:32.235Z,13.39
2022-09-24T10:20:32.986Z,13.38
2022-09-24T10:21:33.817Z,13.41
2022-09-24T10:22:34.645Z,13.39
2022-09-24T10:23:35.486Z,13.39
2022-09-24T10:24:36.311Z,13.39
2022-09-24T10:25:37.159Z,13.42
2022-09-24T10:26:42.399Z,13.42
2022-09-24T10:27:39.695Z,13.44
2022-09-24T10:28:39.534Z,13.45
2022-09-24T10:29:40.374Z,13.46
2022-09-24T10:30:41.195Z,13.46
2022-09-24T10:31:42.220Z,13.46
2022-09-24T10:32:42.555Z,13.46
2022-09-24T10:33:43.401Z,13.49
2022-09-24T10:34:44.244Z,13.51
2022-09-24T10:35:45.051Z,13.52
2022-09-24T10:36:45.882Z,13.55
2022-09-24T10:37:46.710Z,13.59
2022-09-24T10:38:47.548Z,13.60
2022-09-24T10:39:48.375Z,13.63
2022-09-24T10:40:49.276Z,13.67
2022-09-24T10:41:50.075Z,13.70
2022-09-24T10:42:50.898Z,13.73
2022-09-24T10:43:51.740Z,13.78
2022-09-24T10:44:53.035Z,13.78
2022-09-24T10:45:53.356Z,13.82
2022-09-24T10:46:54.309Z,13.84
2022-09-24T10:47:55.104Z,13.88
2022-09-24T10:48:55.945Z,13.87
2022-09-24T10:49:56.877Z,13.87
2022-09-24T10:50:57.646Z,13.88
2022-09-24T10:51:58.471Z,13.89
2022-09-24T10:52:59.317Z,13.92
2022-09-24T10:54:00.162Z,13.92
2022-09-24T10:55:00.995Z,13.96
2022-09-24T10:56:01.834Z,13.97
2022-09-24T10:57:02.641Z,13.99
2022-09-24T10:58:03.473Z,13.97
2022-09-24T10:59:04.313Z,13.97
2022-09-24T11:00:05.148Z,13.99
2022-09-24T11:01:05.967Z,13.99
2022-09-24T11:02:06.974Z,14.02
2022-09-24T11:03:07.859Z,14.03
2022-09-24T11:04:08.797Z,14.03
2022-09-24T11:05:09.657Z,14.04
2022-09-24T11:06:10.490Z,14.04
2022-09-24T11:07:11.322Z,14.06
2022-09-24T11:08:12.145Z,14.03
2022-09-24T11:09:12.998Z,14.04
2022-09-24T11:10:14.010Z,14.06
2022-09-24T11:11:14.791Z,14.07
2022-09-24T11:12:15.597Z,14.07
2022-09-24T11:13:16.425Z,14.07
2022-09-24T11:14:17.269Z,14.09
2022-09-24T11:15:18.098Z,14.07
2022-09-24T11:16:18.992Z,14.10
2022-09-24T11:17:19.809Z,14.12
2022-09-24T11:18:20.623Z,14.12
2022-09-24T11:19:21.469Z,14.12
2022-09-24T11:20:22.307Z,14.14
2022-09-24T11:21:23.118Z,14.14
2022-09-24T11:22:23.950Z,14.14
2022-09-24T11:23:24.767Z,14.12
2022-09-24T11:24:25.596Z,14.12
2022-09-24T11:25:26.426Z,14.10
2022-09-24T11:26:27.257Z,14.14
2022-09-24T11:27:28.095Z,14.15
2022-09-24T11:28:28.925Z,14.15
2022-09-24T11:29:34.711Z,14.17
2022-09-24T11:30:31.465Z,14.18
2022-09-24T11:31:31.357Z,14.18
2022-09-24T11:32:32.165Z,14.18
2022-09-24T11:33:32.995Z,14.18
2022-09-24T11:34:33.829Z,14.18
2022-09-24T11:35:34.678Z,14.15
2022-09-24T11:36:35.485Z,14.15
2022-09-24T11:37:36.328Z,14.15
2022-09-24T11:38:37.151Z,14.14
2022-09-24T11:39:37.984Z,14.15
2022-09-24T11:40:38.857Z,14.14
2022-09-24T11:41:39.680Z,14.15
2022-09-24T11:42:40.505Z,14.15
2022-09-24T11:43:41.341Z,14.14
2022-09-24T11:44:42.163Z,14.15
2022-09-24T11:45:42.988Z,14.15
2022-09-24T11:46:43.906Z,14.15
2022-09-24T11:47:44.679Z,14.15
2022-09-24T11:48:45.523Z,14.15
2022-09-24T11:49:46.353Z,14.17
2022-09-24T11:50:48.120Z,14.17
2022-09-24T11:51:47.973Z,14.17
2022-09-24T11:52:48.804Z,14.20
2022-09-24T11:53:49.636Z,14.20
2022-09-24T11:54:50.464Z,14.20
2022-09-24T11:55:51.301Z,14.24
2022-09-24T11:56:52.124Z,14.24
2022-09-24T11:57:52.970Z,14.25
2022-09-24T11:58:53.804Z,14.27
2022-09-24T11:59:54.628Z,14.27
2022-09-24T12:00:55.457Z,14.27
2022-09-24T12:01:56.353Z,14.29
2022-09-24T12:02:57.222Z,14.29
2022-09-24T12:03:58.075Z,14.33
2022-09-24T12:04:58.916Z,14.35
2022-09-24T12:05:59.753Z,14.35
2022-09-24T12:07:00.567Z,14.35
2022-09-24T12:08:01.396Z,14.35
2022-09-24T12:09:02.261Z,14.35
2022-09-24T12:10:03.079Z,14.35
2022-09-24T12:11:03.915Z,14.35
2022-09-24T12:12:04.743Z,14.35
2022-09-24T12:13:05.571Z,14.35
2022-09-24T12:14:06.397Z,14.36
2022-09-24T12:15:07.227Z,14.36
2022-09-24T12:16:08.133Z,14.36
2022-09-24T12:17:09.011Z,14.36
2022-09-24T12:18:09.846Z,14.35
2022-09-24T12:19:10.675Z,14.32
2022-09-24T12:20:11.562Z,14.32
2022-09-24T12:21:12.393Z,14.32
2022-09-24T12:22:13.199Z,14.29
2022-09-24T12:23:14.039Z,14.28
2022-09-24T12:24:15.105Z,14.25
2022-09-24T12:25:15.493Z,14.24
2022-09-24T12:26:16.317Z,14.21
2022-09-24T12:27:17.144Z,14.20
2022-09-24T12:28:17.989Z,14.18
2022-09-24T12:29:18.839Z,14.18
2022-09-24T12:30:19.656Z,14.17
2022-09-24T12:31:20.572Z,14.18
2022-09-24T12:32:21.360Z,14.18
2022-09-24T12:33:22.189Z,14.17
2022-09-24T12:34:23.039Z,14.18
2022-09-24T12:35:23.860Z,14.18
2022-09-24T12:36:24.712Z,14.21
2022-09-24T12:37:25.520Z,14.20
2022-09-24T12:38:26.348Z,14.21
2022-09-24T12:39:27.212Z,14.20
2022-09-24T12:40:28.076Z,14.22
2022-09-24T12:41:28.879Z,14.22
2022-09-24T12:42:29.717Z,14.24
2022-09-24T12:43:30.540Z,14.24
2022-09-24T12:44:31.384Z,14.25
2022-09-24T12:45:32.211Z,14.25
2022-09-24T12:46:33.115Z,14.27
2022-09-24T12:47:33.945Z,14.27
2022-09-24T12:48:34.782Z,14.28
2022-09-24T12:49:35.612Z,14.29
2022-09-24T12:50:36.443Z,14.28
2022-09-24T12:51:37.289Z,14.27
2022-09-24T12:52:38.095Z,14.28
2022-09-24T12:53:38.922Z,14.28
2022-09-24T12:54:39.765Z,14.29
2022-09-24T12:55:40.590Z,14.28
2022-09-24T12:56:41.420Z,14.32
2022-09-24T12:57:42.256Z,14.29
2022-09-24T12:58:43.085Z,14.29
2022-09-24T12:59:43.915Z,14.29
2022-09-24T13:00:44.778Z,14.32
2022-09-24T13:01:45.721Z,14.29
2022-09-24T13:02:46.764Z,14.29
2022-09-24T13:03:47.692Z,14.29
2022-09-24T13:04:48.007Z,14.32
2022-09-24T13:05:48.834Z,14.32
2022-09-24T13:06:49.682Z,14.33
2022-09-24T13:07:50.487Z,14.36
2022-09-24T13:08:51.308Z,14.35
2022-09-24T13:09:52.164Z,14.36
2022-09-24T13:10:52.993Z,14.39
2022-09-24T13:11:53.825Z,14.40
2022-09-24T13:12:54.643Z,14.40
2022-09-24T13:13:55.505Z,14.43
2022-09-24T13:14:56.319Z,14.42
2022-09-24T13:15:57.263Z,14.45
2022-09-24T13:16:58.023Z,14.45
2022-09-24T13:17:58.862Z,14.46
2022-09-24T13:18:59.688Z,14.46
2022-09-24T13:20:00.520Z,14.45